Time;durP1;ratioP1;P1;durP2;ratioP2;P2;SDS_P1;SDS_P2;PMS_P1;PMS_P2;Temp;Humidity;BMP_temperature;BMP_pressure;BME280_temperature;BME280_humidity;BME280_pressure;Samples;Min_cycle;Max_cycle;Signal;HPM_P1;HPM_P2
2023/05/22 00:01:28;;;;;;;;;;;;;;;16.30;74.60;101704.94;5053451;28;19960;-72
2023/05/22 00:03:54;;;;;;;;;;;;;;;16.26;75.42;101700.38;5051382;28;19986;-72
2023/05/22 00:06:21;;;;;;;;;;;;;;;16.28;74.94;101707.13;5040551;28;19998;-73
2023/05/22 00:08:46;;;;;;;;;;;;;;;16.25;74.67;101699.56;5055792;28;19939;-73
2023/05/22 00:11:12;;;;;;;;;;;;;;;16.36;73.96;101703.00;5065596;28;19927;-73
2023/05/22 00:13:38;;;;;;;;;;;;;;;16.35;73.79;101702.19;5070932;28;19932;-74
2023/05/22 00:16:03;;;;;;;;;;;;;;;16.42;73.74;101699.16;5038352;28;19955;-73
2023/05/22 00:18:29;;;;;;;;;;;;;;;16.32;73.60;101696.53;5052067;28;19935;-73
2023/05/22 00:20:54;;;;;;;;;;;;;;;16.29;73.51;101684.41;5060218;28;20031;-73
2023/05/22 00:23:20;;;;;;;;;;;;;;;16.30;73.45;101693.31;5055750;28;19940;-73
2023/05/22 00:25:46;;;;;;;;;;;;;;;16.28;73.02;101693.59;5047165;28;19955;-72
2023/05/22 00:28:12;;;;;;;;;;;;;;;16.33;72.72;101688.16;5050137;28;19947;-73
2023/05/22 00:30:38;;;;;;;;;;;;;;;16.28;73.12;101684.69;5034335;28;20517;-72
2023/05/22 00:33:04;;;;;;;;;;;;;;;16.33;72.50;101684.66;5063622;28;19936;-73
2023/05/22 00:35:29;;;;;;;;;;;;;;;16.32;72.39;101685.72;5063212;28;20442;-75
2023/05/22 00:37:55;;;;;;;;;;;;;;;16.26;72.69;101684.97;5044891;28;19940;-72
2023/05/22 00:40:21;;;;;;;;;;;;;;;16.17;72.99;101680.47;5046264;28;19987;-72
2023/05/22 00:42:46;;;;;;;;;;;;;;;16.12;72.71;101684.00;5065687;28;19944;-73
2023/05/22 00:45:15;;;;;;;;;;;;;;;16.13;72.76;101682.94;5000517;28;1926849;-73
2023/05/22 00:47:41;;;;;;;;;;;;;;;16.09;72.74;101687.28;5058233;28;20418;-73
2023/05/22 00:50:08;;;;;;;;;;;;;;;15.98;73.38;101686.53;5051267;28;20444;-73
2023/05/22 00:52:36;;;;;;;;;;;;;;;15.93;73.46;101688.50;5062602;28;20148;-74
2023/05/22 00:55:04;;;;;;;;;;;;;;;15.79;73.58;101683.75;5064628;28;20006;-73
2023/05/22 00:57:30;;;;;;;;;;;;;;;15.79;72.82;101685.66;5036889;28;19987;-73
2023/05/22 01:00:07;;;;;;;;;;;;;;;15.72;72.99;101687.84;5070523;28;19940;-73
2023/05/22 01:02:35;;;;;;;;;;;;;;;15.73;72.91;101690.28;5049723;28;20474;-72
2023/05/22 01:05:03;;;;;;;;;;;;;;;15.67;73.13;101691.38;5031310;28;19948;-74
2023/05/22 01:07:29;;;;;;;;;;;;;;;15.56;73.32;101687.09;5061462;28;19933;-73
2023/05/22 01:09:55;;;;;;;;;;;;;;;15.46;73.90;101679.88;5045515;28;19996;-72
2023/05/22 01:12:37;;;;;;;;;;;;;;;15.46;73.54;101677.19;5067352;28;19946;-73
2023/05/22 01:15:09;;;;;;;;;;;;;;;15.44;73.52;101676.63;5048791;28;19964;-73
2023/05/22 01:17:44;;;;;;;;;;;;;;;15.42;73.38;101673.41;5069640;28;21067;-71
2023/05/22 01:20:23;;;;;;;;;;;;;;;15.35;73.01;101672.94;5070714;28;19917;-71
2023/05/22 01:23:11;;;;;;;;;;;;;;;15.51;72.41;101665.53;5050612;28;19937;-72
2023/05/22 01:25:41;;;;;;;;;;;;;;;15.44;72.66;101665.84;5061079;28;19945;-74
2023/05/22 01:28:10;;;;;;;;;;;;;;;15.51;72.35;101669.06;5061607;28;19930;-73
2023/05/22 01:30:39;;;;;;;;;;;;;;;15.41;72.80;101671.81;5061451;28;19933;-74
2023/05/22 01:33:06;;;;;;;;;;;;;;;15.44;72.54;101665.84;5061829;28;19967;-73
2023/05/22 01:35:32;;;;;;;;;;;;;;;15.36;72.71;101663.75;5070515;28;19955;-73
2023/05/22 01:37:59;;;;;;;;;;;;;;;15.26;73.25;101666.50;5074349;28;19964;-72
2023/05/22 01:40:24;;;;;;;;;;;;;;;15.12;73.49;101663.63;5061496;28;20004;-72
2023/05/22 01:42:50;;;;;;;;;;;;;;;15.12;73.72;101673.59;5050455;28;19933;-73
2023/05/22 01:45:16;;;;;;;;;;;;;;;15.07;74.63;101670.91;5048590;28;19950;-73
2023/05/22 01:47:43;;;;;;;;;;;;;;;15.16;73.45;101664.66;5040674;28;19945;-73
2023/05/22 01:50:10;;;;;;;;;;;;;;;15.07;74.57;101670.91;5050934;28;19954;-72
2023/05/22 01:52:51;;;;;;;;;;;;;;;15.03;74.55;101660.66;5033058;28;19955;-74
2023/05/22 01:55:20;;;;;;;;;;;;;;;14.93;75.01;101668.00;5061556;28;19965;-73
2023/05/22 01:57:54;;;;;;;;;;;;;;;14.92;75.40;101669.09;5062550;28;19944;-71
2023/05/22 02:00:21;;;;;;;;;;;;;;;14.88;74.78;101670.72;5049357;28;19987;-72
2023/05/22 02:03:06;;;;;;;;;;;;;;;14.81;75.06;101668.31;5053477;28;19942;-72
2023/05/22 02:05:53;;;;;;;;;;;;;;;14.79;75.17;101670.50;5062843;28;20600;-74
2023/05/22 02:08:19;;;;;;;;;;;;;;;14.73;75.21;101666.19;5060993;28;20870;-72
2023/05/22 02:10:48;;;;;;;;;;;;;;;14.71;75.22;101673.75;5073796;28;19964;-73
2023/05/22 02:13:13;;;;;;;;;;;;;;;14.72;75.04;101669.97;5061961;28;19949;-74
2023/05/22 02:15:39;;;;;;;;;;;;;;;14.69;75.07;101657.84;5064739;28;20033;-72
2023/05/22 02:18:14;;;;;;;;;;;;;;;14.80;74.46;101650.53;5052159;28;19934;-72
2023/05/22 02:20:41;;;;;;;;;;;;;;;14.81;74.45;101644.03;5033118;28;20562;-72
2023/05/22 02:23:07;;;;;;;;;;;;;;;14.91;73.79;101652.09;5034480;28;19935;-72
2023/05/22 02:25:32;;;;;;;;;;;;;;;14.94;73.77;101651.53;5081805;28;19955;-72
2023/05/22 02:27:58;;;;;;;;;;;;;;;14.95;73.88;101645.06;5050848;28;19934;-72
2023/05/22 02:30:24;;;;;;;;;;;;;;;15.08;72.67;101640.97;5040753;28;19938;-72
2023/05/22 02:32:52;;;;;;;;;;;;;;;15.13;72.74;101634.75;5062059;28;19945;-72
2023/05/22 02:35:17;;;;;;;;;;;;;;;15.10;72.67;101640.69;5059831;28;19954;-72
2023/05/22 02:37:43;;;;;;;;;;;;;;;15.04;72.87;101637.22;5060690;28;20450;-73
2023/05/22 02:40:09;;;;;;;;;;;;;;;15.00;73.16;101636.97;5029365;28;20358;-74
2023/05/22 02:42:35;;;;;;;;;;;;;;;15.02;72.90;101642.88;5065533;28;20820;-73
2023/05/22 02:45:03;;;;;;;;;;;;;;;15.04;73.24;101634.53;5037229;28;21331;-71
2023/05/22 02:47:32;;;;;;;;;;;;;;;14.97;73.02;101629.44;5068692;28;19948;-73
2023/05/22 02:49:58;;;;;;;;;;;;;;;15.05;73.17;101628.03;5058777;28;19933;-73
2023/05/22 02:52:23;;;;;;;;;;;;;;;15.10;72.70;101635.28;5070144;28;20096;-72
2023/05/22 02:54:49;;;;;;;;;;;;;;;15.00;73.14;101631.56;5069604;28;19970;-72
2023/05/22 02:57:15;;;;;;;;;;;;;;;15.07;73.15;101627.75;5065678;28;19933;-73
2023/05/22 02:59:40;;;;;;;;;;;;;;;15.06;72.74;101629.66;5060267;28;19940;-72
2023/05/22 03:02:06;;;;;;;;;;;;;;;15.06;72.79;101618.06;5070577;28;19933;-73
2023/05/22 03:04:32;;;;;;;;;;;;;;;15.11;72.11;101623.44;5073841;28;19943;-74
2023/05/22 03:06:58;;;;;;;;;;;;;;;15.15;71.86;101613.69;5043907;28;20280;-75
2023/05/22 03:09:24;;;;;;;;;;;;;;;15.18;71.62;101621.22;5054417;28;19933;-73
2023/05/22 03:11:49;;;;;;;;;;;;;;;15.17;71.84;101622.28;5059856;28;19940;-73
2023/05/22 03:14:15;;;;;;;;;;;;;;;15.14;71.15;101622.84;5062845;28;19971;-73
2023/05/22 03:16:40;;;;;;;;;;;;;;;15.22;70.69;101622.25;5038135;28;20001;-74
2023/05/22 03:19:10;;;;;;;;;;;;;;;15.29;70.28;101611.97;5066436;28;20304;-74
2023/05/22 03:21:37;;;;;;;;;;;;;;;15.33;70.21;101615.72;5064975;28;19980;-74
2023/05/22 03:24:03;;;;;;;;;;;;;;;15.32;70.05;101618.72;5048096;28;20363;-74
2023/05/22 03:26:29;;;;;;;;;;;;;;;15.25;70.20;101619.84;5063690;28;19996;-73
2023/05/22 03:28:56;;;;;;;;;;;;;;;15.21;70.52;101623.34;5035051;28;20039;-74
2023/05/22 03:31:23;;;;;;;;;;;;;;;15.22;70.05;101616.88;5065754;28;20009;-73
2023/05/22 03:34:01;;;;;;;;;;;;;;;15.16;70.44;101609.88;5051834;28;19952;-75
2023/05/22 03:36:26;;;;;;;;;;;;;;;15.16;70.24;101610.69;5074097;28;19958;-73
2023/05/22 03:38:52;;;;;;;;;;;;;;;15.16;70.02;101613.38;5063929;28;20613;-76
2023/05/22 03:41:17;;;;;;;;;;;;;;;15.19;69.60;101610.16;5055135;28;20023;-74
2023/05/22 03:43:43;;;;;;;;;;;;;;;15.21;69.55;101612.56;5067023;28;20385;-73
2023/05/22 03:46:11;;;;;;;;;;;;;;;15.24;69.13;101606.59;5026322;28;19961;-74
2023/05/22 03:48:37;;;;;;;;;;;;;;;15.22;68.93;101609.56;5030290;28;20382;-72
2023/05/22 03:51:03;;;;;;;;;;;;;;;15.25;68.96;101608.22;5060882;28;19933;-74
2023/05/22 03:53:28;;;;;;;;;;;;;;;15.26;69.19;101609.84;5060607;28;19934;-73
2023/05/22 03:55:53;;;;;;;;;;;;;;;15.28;69.11;101608.47;5055037;28;20010;-73
2023/05/22 03:58:19;;;;;;;;;;;;;;;15.39;68.66;101609.22;5063576;28;19988;-73
2023/05/22 04:00:45;;;;;;;;;;;;;;;15.42;68.63;101607.84;5065854;28;19940;-72
2023/05/22 04:03:11;;;;;;;;;;;;;;;15.47;68.98;101615.91;5071231;28;19938;-73
2023/05/22 04:05:37;;;;;;;;;;;;;;;15.63;67.71;101609.31;5071333;28;19963;-74
2023/05/22 04:08:03;;;;;;;;;;;;;;;15.77;67.33;101604.06;5057347;28;19931;-73
2023/05/22 04:10:29;;;;;;;;;;;;;;;15.79;67.23;101607.31;5038295;28;20414;-73
2023/05/22 04:12:55;;;;;;;;;;;;;;;16.01;66.25;101604.16;5058256;28;19933;-73
2023/05/22 04:15:21;;;;;;;;;;;;;;;16.03;66.93;101607.34;5063316;28;19959;-73
2023/05/22 04:17:48;;;;;;;;;;;;;;;16.09;66.54;101604.31;5073468;28;19945;-72
2023/05/22 04:20:14;;;;;;;;;;;;;;;16.24;66.17;101602.56;5072355;28;20441;-71
2023/05/22 04:22:40;;;;;;;;;;;;;;;16.28;65.95;101598.19;5083268;28;19932;-73
2023/05/22 04:25:06;;;;;;;;;;;;;;;16.36;65.29;101605.66;5061266;28;19950;-72
2023/05/22 04:27:32;;;;;;;;;;;;;;;16.47;64.38;101604.47;5068765;28;20022;-72
2023/05/22 04:29:58;;;;;;;;;;;;;;;16.57;64.05;101600.84;5055780;28;20042;-73
2023/05/22 04:32:25;;;;;;;;;;;;;;;16.68;63.68;101601.53;5051453;28;19960;-74
2023/05/22 04:34:50;;;;;;;;;;;;;;;16.72;63.36;101608.78;5053225;28;19964;-74
2023/05/22 04:37:17;;;;;;;;;;;;;;;16.80;62.66;101599.22;5068318;28;20067;-73
2023/05/22 04:39:44;;;;;;;;;;;;;;;16.95;63.73;101603.66;5051329;28;19937;-72
2023/05/22 04:42:13;;;;;;;;;;;;;;;16.90;61.85;101604.50;5074404;28;19954;-73
2023/05/22 04:44:40;;;;;;;;;;;;;;;16.95;62.31;101601.75;5073012;28;20163;-74
2023/05/22 04:47:10;;;;;;;;;;;;;;;17.06;61.72;101603.19;5048872;28;20059;-74
2023/05/22 04:49:36;;;;;;;;;;;;;;;17.10;62.44;101601.53;5052090;28;19967;-73
2023/05/22 04:52:03;;;;;;;;;;;;;;;17.18;61.59;101600.84;5071048;28;19949;-74
2023/05/22 04:54:50;;;;;;;;;;;;;;;17.28;60.51;101599.13;5064338;28;20058;-74
2023/05/22 04:57:34;;;;;;;;;;;;;;;17.38;60.44;101598.94;5053781;28;20438;-74
2023/05/22 05:00:18;;;;;;;;;;;;;;;17.50;60.51;101603.91;5059364;28;19981;-74
2023/05/22 05:02:45;;;;;;;;;;;;;;;17.68;57.97;101597.66;5064896;28;20031;-74
2023/05/22 05:05:10;;;;;;;;;;;;;;;17.64;58.95;101602.88;5037415;28;19995;-73
2023/05/22 05:07:37;;;;;;;;;;;;;;;17.82;58.23;101586.91;5051589;28;20346;-72
2023/05/22 05:10:03;;;;;;;;;;;;;;;17.86;57.20;101596.03;5059121;28;19945;-72
2023/05/22 05:12:29;;;;;;;;;;;;;;;18.08;58.53;101590.75;5064021;28;20003;-73
2023/05/22 05:14:55;;;;;;;;;;;;;;;18.07;56.98;101589.13;5052426;28;20337;-74
2023/05/22 05:17:21;;;;;;;;;;;;;;;18.20;57.86;101580.22;5036186;28;19945;-72
2023/05/22 05:19:46;;;;;;;;;;;;;;;18.17;56.61;101591.66;5044555;28;19941;-74
2023/05/22 05:22:12;;;;;;;;;;;;;;;18.46;58.41;101596.00;5059617;28;19937;-74
2023/05/22 05:24:37;;;;;;;;;;;;;;;18.47;55.78;101590.25;5048629;28;19939;-73
2023/05/22 05:27:03;;;;;;;;;;;;;;;18.44;54.44;101587.38;5064098;28;19942;-72
2023/05/22 05:29:29;;;;;;;;;;;;;;;18.52;56.79;101592.06;5072879;28;19939;-75
2023/05/22 05:32:02;;;;;;;;;;;;;;;18.55;54.08;101586.03;5058832;28;19942;-73
2023/05/22 05:34:48;;;;;;;;;;;;;;;18.58;55.85;101581.94;5063346;28;19955;-74
2023/05/22 05:37:25;;;;;;;;;;;;;;;18.62;52.94;101594.56;5049346;28;19929;-74
2023/05/22 05:39:53;;;;;;;;;;;;;;;18.66;53.46;101584.75;5050524;28;20069;-73
2023/05/22 05:42:19;;;;;;;;;;;;;;;18.69;54.18;101589.56;5052216;28;20027;-74
2023/05/22 05:44:46;;;;;;;;;;;;;;;18.72;53.60;101594.41;5043043;28;19940;-74
2023/05/22 05:47:12;;;;;;;;;;;;;;;18.70;52.70;101583.06;5054637;28;19938;-73
2023/05/22 05:49:39;;;;;;;;;;;;;;;18.86;53.95;101580.00;5064041;28;19936;-72
2023/05/22 05:52:06;;;;;;;;;;;;;;;18.94;53.07;101585.50;5067338;28;19942;-75
2023/05/22 05:54:34;;;;;;;;;;;;;;;19.06;52.38;101571.41;5071608;28;19926;-75
2023/05/22 05:57:05;;;;;;;;;;;;;;;19.21;52.88;101583.81;5073647;28;19934;-75
2023/05/22 05:59:30;;;;;;;;;;;;;;;19.16;51.94;101587.44;5071635;28;19931;-75
2023/05/22 06:02:16;;;;;;;;;;;;;;;19.17;51.37;101575.50;5055597;28;19937;-71
2023/05/22 06:04:42;;;;;;;;;;;;;;;19.28;52.31;101576.84;5049002;28;19938;-73
2023/05/22 06:07:09;;;;;;;;;;;;;;;19.34;51.47;101572.09;5043540;28;19939;-73
2023/05/22 06:09:43;;;;;;;;;;;;;;;19.47;51.61;101578.59;5051405;28;19965;-73
2023/05/22 06:12:20;;;;;;;;;;;;;;;19.43;51.12;101574.88;5063294;28;20046;-72
2023/05/22 06:14:46;;;;;;;;;;;;;;;19.48;51.52;101561.97;5059540;28;20399;-74
2023/05/22 06:17:13;;;;;;;;;;;;;;;19.68;51.11;101560.69;5053270;28;19930;-73
2023/05/22 06:19:41;;;;;;;;;;;;;;;19.69;51.26;101565.00;5070754;28;19942;-74
2023/05/22 06:22:06;;;;;;;;;;;;;;;19.77;52.00;101568.88;5065473;28;19957;-74
2023/05/22 06:24:33;;;;;;;;;;;;;;;19.84;50.92;101577.41;5067450;28;20040;-74
2023/05/22 06:27:04;;;;;;;;;;;;;;;19.78;50.69;101570.50;5050806;28;19939;-73
2023/05/22 06:29:30;;;;;;;;;;;;;;;19.99;51.16;101574.31;5048906;28;19935;-74
2023/05/22 06:31:55;;;;;;;;;;;;;;;19.93;50.75;101577.47;5069264;28;19976;-72
2023/05/22 06:34:21;;;;;;;;;;;;;;;20.05;51.34;101574.94;5063763;28;19936;-73
2023/05/22 06:36:49;;;;;;;;;;;;;;;20.28;51.37;101571.06;5063246;28;19952;-74
2023/05/22 06:39:16;;;;;;;;;;;;;;;20.45;51.17;101584.72;5061289;28;20294;-74
2023/05/22 06:42:09;;;;;;;;;;;;;;;20.36;49.41;101581.16;5057419;28;20038;-73
2023/05/22 06:45:01;;;;;;;;;;;;;;;20.37;49.89;101587.41;5061044;28;19964;-72
2023/05/22 06:47:35;;;;;;;;;;;;;;;20.50;49.03;101586.50;5042269;28;20665;-73
2023/05/22 06:50:01;;;;;;;;;;;;;;;20.75;49.07;101581.44;5063037;28;19936;-73
2023/05/22 06:52:27;;;;;;;;;;;;;;;21.10;49.29;101588.53;5066874;28;19937;-73
2023/05/22 06:54:53;;;;;;;;;;;;;;;21.00;47.63;101583.41;5065086;28;19963;-72
2023/05/22 06:57:22;;;;;;;;;;;;;;;21.13;47.12;101596.03;5064027;28;20031;-72
2023/05/22 06:59:49;;;;;;;;;;;;;;;21.13;47.79;101601.50;5071696;28;19942;-72
2023/05/22 07:02:38;;;;;;;;;;;;;;;21.53;47.27;101585.78;5070717;28;19940;-72
2023/05/22 07:05:17;;;;;;;;;;;;;;;21.66;48.17;101596.84;5068262;28;19957;-71
2023/05/22 07:07:49;;;;;;;;;;;;;;;21.58;46.77;101603.09;5072062;28;19934;-72
2023/05/22 07:10:15;;;;;;;;;;;;;;;21.82;46.40;101591.69;5053054;28;19931;-72
2023/05/22 07:12:41;;;;;;;;;;;;;;;22.00;46.60;101598.66;5068997;28;19939;-72
2023/05/22 07:15:10;;;;;;;;;;;;;;;21.84;45.49;101587.50;5067708;28;20487;-72
2023/05/22 07:17:37;;;;;;;;;;;;;;;22.28;45.05;101593.63;5070501;28;19944;-73
2023/05/22 07:20:04;;;;;;;;;;;;;;;22.02;45.30;101591.78;5054272;28;19941;-72
2023/05/22 07:22:32;;;;;;;;;;;;;;;21.88;46.21;101590.34;5068671;28;19967;-73
2023/05/22 07:24:58;;;;;;;;;;;;;;;22.19;46.48;101580.03;5065090;28;20000;-72
2023/05/22 07:27:29;;;;;;;;;;;;;;;22.12;45.92;101582.47;5071917;28;19934;-73
2023/05/22 07:29:55;;;;;;;;;;;;;;;22.28;45.79;101577.25;5064275;28;19935;-72
2023/05/22 07:32:20;;;;;;;;;;;;;;;22.06;45.19;101583.72;5069365;28;20404;-75
2023/05/22 07:34:46;;;;;;;;;;;;;;;21.84;45.57;101579.31;5057490;28;19970;-74
2023/05/22 07:37:15;;;;;;;;;;;;;;;21.91;46.14;101576.88;5050743;28;20272;-72
2023/05/22 07:39:45;;;;;;;;;;;;;;;22.13;45.45;101575.88;5065031;28;19950;-72
2023/05/22 07:42:13;;;;;;;;;;;;;;;22.16;45.37;101582.63;5032077;28;20390;-74
2023/05/22 07:44:45;;;;;;;;;;;;;;;22.12;44.35;101577.00;5063317;28;19933;-73
2023/05/22 07:47:10;;;;;;;;;;;;;;;22.36;44.71;101579.16;5063625;28;19982;-73
2023/05/22 07:49:37;;;;;;;;;;;;;;;22.32;48.37;101570.81;5050882;28;19937;-73
2023/05/22 07:52:03;;;;;;;;;;;;;;;22.59;46.84;101564.06;5057242;28;19931;-73
2023/05/22 07:54:28;;;;;;;;;;;;;;;22.80;44.77;101576.94;5061733;28;19939;-72
2023/05/22 07:56:54;;;;;;;;;;;;;;;22.95;42.63;101565.44;5053297;28;19956;-72
2023/05/22 07:59:22;;;;;;;;;;;;;;;23.72;45.47;101560.44;5066813;28;19930;-73
2023/05/22 08:01:49;;;;;;;;;;;;;;;23.62;42.51;101569.84;5036777;28;19942;-72
2023/05/22 08:04:14;;;;;;;;;;;;;;;23.93;42.27;101571.28;5072442;28;19985;-73
2023/05/22 08:06:42;;;;;;;;;;;;;;;23.97;42.70;101563.97;5071270;28;20452;-71
2023/05/22 08:09:08;;;;;;;;;;;;;;;24.12;44.02;101557.84;5063160;28;19934;-73
2023/05/22 08:11:36;;;;;;;;;;;;;;;23.94;41.47;101568.19;5061509;28;20427;-74
2023/05/22 08:14:02;;;;;;;;;;;;;;;24.27;41.50;101559.09;5075042;28;20450;-73
2023/05/22 08:16:29;;;;;;;;;;;;;;;24.15;42.09;101564.56;5070544;28;19961;-74
2023/05/22 08:18:55;;;;;;;;;;;;;;;24.00;42.52;101557.84;5071096;28;19944;-72
2023/05/22 08:21:20;;;;;;;;;;;;;;;24.31;41.79;101554.53;5063745;28;19993;-74
2023/05/22 08:23:46;;;;;;;;;;;;;;;24.13;43.63;101556.72;5042101;28;20606;-74
2023/05/22 08:26:14;;;;;;;;;;;;;;;23.95;43.83;101555.31;5050400;28;20422;-74
2023/05/22 08:28:43;;;;;;;;;;;;;;;23.87;44.02;101554.28;5057129;28;20064;-72
2023/05/22 08:31:12;;;;;;;;;;;;;;;23.86;43.34;101563.63;5067136;28;19935;-74
2023/05/22 08:33:38;;;;;;;;;;;;;;;23.86;43.52;101552.69;5038419;28;20962;-73
2023/05/22 08:36:04;;;;;;;;;;;;;;;23.69;43.51;101564.63;5053170;28;19965;-71
2023/05/22 08:38:30;;;;;;;;;;;;;;;24.04;43.71;101553.25;5069078;28;20433;-73
2023/05/22 08:40:56;;;;;;;;;;;;;;;24.16;42.09;101558.75;5065624;28;19942;-72
2023/05/22 08:43:22;;;;;;;;;;;;;;;24.19;43.01;101552.59;5073601;28;20467;-74
2023/05/22 08:45:54;;;;;;;;;;;;;;;24.62;41.95;101553.16;5049665;28;20097;-71
2023/05/22 08:48:22;;;;;;;;;;;;;;;24.61;40.11;101541.41;5060319;28;20025;-71
2023/05/22 08:50:55;;;;;;;;;;;;;;;24.37;40.58;101555.13;5050071;28;19937;-71
2023/05/22 08:53:22;;;;;;;;;;;;;;;24.66;40.67;101535.69;5064201;28;19942;-74
2023/05/22 08:55:48;;;;;;;;;;;;;;;23.98;40.14;101540.97;5064500;28;19956;-71
2023/05/22 08:58:15;;;;;;;;;;;;;;;23.82;40.89;101534.56;5066657;28;19939;-72
2023/05/22 09:00:40;;;;;;;;;;;;;;;23.81;42.21;101539.25;5065084;28;19998;-71
2023/05/22 09:03:08;;;;;;;;;;;;;;;24.28;41.54;101535.25;5062132;28;19972;-72
2023/05/22 09:05:38;;;;;;;;;;;;;;;24.61;40.21;101524.97;5068282;28;19949;-72
2023/05/22 09:08:03;;;;;;;;;;;;;;;24.64;39.15;101527.00;5065856;28;19936;-72
2023/05/22 09:10:29;;;;;;;;;;;;;;;24.85;38.83;101528.78;5065811;28;19986;-72
2023/05/22 09:13:04;;;;;;;;;;;;;;;24.79;38.34;101528.22;5067974;28;20321;-73
2023/05/22 09:15:31;;;;;;;;;;;;;;;25.10;39.40;101526.78;5078229;28;19965;-73
2023/05/22 09:17:57;;;;;;;;;;;;;;;25.04;39.51;101523.50;5069087;28;19940;-73
2023/05/22 09:20:23;;;;;;;;;;;;;;;25.31;38.99;101527.38;5047001;28;20471;-73
2023/05/22 09:22:48;;;;;;;;;;;;;;;25.20;38.88;101521.63;5059087;28;19972;-74
2023/05/22 09:25:18;;;;;;;;;;;;;;;25.18;38.79;101517.59;5068391;28;19975;-72
2023/05/22 09:27:45;;;;;;;;;;;;;;;25.50;39.41;101519.25;5064671;28;20423;-72
2023/05/22 09:30:11;;;;;;;;;;;;;;;25.53;37.98;101518.53;5047933;28;19943;-73
2023/05/22 09:32:36;;;;;;;;;;;;;;;25.55;37.95;101510.00;5063774;28;19937;-74
2023/05/22 09:35:03;;;;;;;;;;;;;;;25.90;36.69;101504.63;5063306;28;19963;-74
2023/05/22 09:37:32;;;;;;;;;;;;;;;25.93;37.45;101508.59;5036993;28;19935;-72
2023/05/22 09:39:58;;;;;;;;;;;;;;;25.91;37.28;101497.19;5072108;28;19934;-72
2023/05/22 09:42:23;;;;;;;;;;;;;;;26.16;36.42;101495.03;5067825;28;19942;-72
2023/05/22 09:44:50;;;;;;;;;;;;;;;26.37;37.62;101490.00;5056799;28;20391;-73
2023/05/22 09:47:16;;;;;;;;;;;;;;;26.35;36.84;101492.28;5067342;28;19933;-72
2023/05/22 09:49:42;;;;;;;;;;;;;;;26.12;37.27;101489.44;5065897;28;20461;-73
2023/05/22 09:52:08;;;;;;;;;;;;;;;26.39;36.85;101487.69;5064235;28;19941;-73
2023/05/22 09:54:37;;;;;;;;;;;;;;;26.81;36.05;101487.81;5074452;28;19932;-73
2023/05/22 09:57:05;;;;;;;;;;;;;;;27.06;36.17;101484.78;5070198;28;20037;-72
2023/05/22 09:59:32;;;;;;;;;;;;;;;27.09;34.62;101492.28;5072832;28;19942;-73
2023/05/22 10:01:58;;;;;;;;;;;;;;;26.72;33.08;101484.50;5046727;28;19983;-73
2023/05/22 10:04:26;;;;;;;;;;;;;;;26.29;33.77;101472.59;5055446;28;19937;-73
2023/05/22 10:06:53;;;;;;;;;;;;;;;26.80;34.28;101479.94;5048560;28;20023;-74
2023/05/22 10:09:29;;;;;;;;;;;;;;;26.48;35.21;101473.78;5049531;28;19936;-73
2023/05/22 10:11:57;;;;;;;;;;;;;;;26.17;35.46;101467.22;5072398;28;19931;-73
2023/05/22 10:14:23;;;;;;;;;;;;;;;25.92;34.92;101474.06;5069773;28;19935;-73
2023/05/22 10:16:50;;;;;;;;;;;;;;;26.33;36.30;101467.94;5065572;28;19964;-72
2023/05/22 10:19:16;;;;;;;;;;;;;;;26.31;35.81;101459.28;5064739;28;20407;-71
2023/05/22 10:21:46;;;;;;;;;;;;;;;26.10;35.24;101469.78;5052512;28;19930;-72
2023/05/22 10:24:12;;;;;;;;;;;;;;;26.23;36.11;101463.03;5063200;28;19939;-74
2023/05/22 10:26:37;;;;;;;;;;;;;;;26.70;35.70;101464.03;5051678;28;19951;-73
2023/05/22 10:29:10;;;;;;;;;;;;;;;26.83;35.63;101458.03;5064464;28;19944;-74
2023/05/22 10:31:41;;;;;;;;;;;;;;;27.26;35.38;101452.56;5066257;28;19943;-73
2023/05/22 10:34:23;;;;;;;;;;;;;;;27.37;34.32;101446.09;5047667;28;19941;-74
2023/05/22 10:36:53;;;;;;;;;;;;;;;27.14;33.36;101448.03;5037599;28;19963;-73
2023/05/22 10:39:30;;;;;;;;;;;;;;;27.88;32.47;101431.19;5060595;28;19933;-74
2023/05/22 10:41:55;;;;;;;;;;;;;;;27.58;32.92;101431.09;5061544;28;19980;-74
2023/05/22 10:44:21;;;;;;;;;;;;;;;27.35;33.92;101425.59;5047302;28;19977;-72
2023/05/22 10:46:49;;;;;;;;;;;;;;;27.50;33.00;101438.41;5044623;28;20009;-72
2023/05/22 10:49:22;;;;;;;;;;;;;;;27.49;34.00;101434.88;5063914;28;19933;-73
2023/05/22 10:51:48;;;;;;;;;;;;;;;27.55;33.60;101438.09;5042520;28;20023;-74
2023/05/22 10:54:14;;;;;;;;;;;;;;;27.40;34.96;101436.28;5068238;28;19983;-72
2023/05/22 10:56:39;;;;;;;;;;;;;;;26.88;34.81;101434.94;5056966;28;20430;-74
2023/05/22 10:59:06;;;;;;;;;;;;;;;26.10;35.32;101432.16;5071920;28;19940;-74
2023/05/22 11:01:36;;;;;;;;;;;;;;;26.66;35.02;101417.25;5069399;28;20662;-74
2023/05/22 11:04:17;;;;;;;;;;;;;;;26.48;34.26;101440.81;5072996;28;19938;-73
2023/05/22 11:07:00;;;;;;;;;;;;;;;26.51;34.91;101423.63;5053940;28;20043;-73
2023/05/22 11:09:35;;;;;;;;;;;;;;;26.44;35.33;101428.97;5046059;28;19945;-72
2023/05/22 11:12:20;;;;;;;;;;;;;;;26.56;34.28;101421.41;5069132;28;19978;-75
2023/05/22 11:14:58;;;;;;;;;;;;;;;26.63;34.40;101423.50;5051912;28;19934;-73
2023/05/22 11:17:27;;;;;;;;;;;;;;;26.68;34.64;101423.19;5065271;28;19998;-73
2023/05/22 11:19:57;;;;;;;;;;;;;;;26.69;34.72;101411.06;5063847;28;20080;-73
2023/05/22 11:22:28;;;;;;;;;;;;;;;26.62;33.99;101413.63;5063994;28;19943;-73
2023/05/22 11:24:53;;;;;;;;;;;;;;;26.79;35.74;101413.19;5059756;28;19977;-74
2023/05/22 11:27:19;;;;;;;;;;;;;;;26.88;34.24;101411.00;5073698;28;20521;-73
2023/05/22 11:29:45;;;;;;;;;;;;;;;26.81;33.21;101407.31;5053404;28;19944;-75
2023/05/22 11:32:18;;;;;;;;;;;;;;;26.87;33.13;101406.66;5089248;28;19983;-74
2023/05/22 11:34:44;;;;;;;;;;;;;;;26.75;34.04;101398.59;5070123;28;19992;-73
2023/05/22 11:37:10;;;;;;;;;;;;;;;27.33;32.18;101392.97;5067529;28;20417;-73
2023/05/22 11:39:38;;;;;;;;;;;;;;;27.36;32.25;101394.19;5067065;28;20579;-73
2023/05/22 11:42:04;;;;;;;;;;;;;;;27.58;32.42;101390.63;5056590;28;19932;-73
2023/05/22 11:44:30;;;;;;;;;;;;;;;27.46;32.32;101388.84;5069273;28;19933;-73
2023/05/22 11:46:55;;;;;;;;;;;;;;;27.37;32.45;101385.59;5066004;28;19961;-72
2023/05/22 11:49:26;;;;;;;;;;;;;;;27.91;31.77;101384.44;5064319;28;19924;-74
2023/05/22 11:51:52;;;;;;;;;;;;;;;27.86;31.47;101378.47;5071884;28;19933;-73
2023/05/22 11:54:17;;;;;;;;;;;;;;;28.33;31.07;101375.19;5071232;28;19942;-73
2023/05/22 11:56:44;;;;;;;;;;;;;;;28.25;31.27;101376.22;5070152;28;20494;-72
2023/05/22 11:59:09;;;;;;;;;;;;;;;28.20;31.25;101379.31;5069399;28;19939;-73
2023/05/22 12:01:35;;;;;;;;;;;;;;;28.48;30.90;101379.69;5066610;28;19940;-74
2023/05/22 12:04:01;;;;;;;;;;;;;;;28.59;30.09;101367.97;5059454;28;20009;-73
2023/05/22 12:06:26;;;;;;;;;;;;;;;28.62;29.84;101367.22;5071257;28;19959;-74
2023/05/22 12:08:52;;;;;;;;;;;;;;;28.82;29.69;101360.34;5061647;28;19927;-71
2023/05/22 12:11:18;;;;;;;;;;;;;;;28.63;30.28;101368.81;5067536;28;19962;-72
2023/05/22 12:13:44;;;;;;;;;;;;;;;29.13;29.44;101359.09;5067013;28;19991;-76
2023/05/22 12:16:17;;;;;;;;;;;;;;;30.00;28.52;101353.72;5050653;28;20011;-74
2023/05/22 12:18:42;;;;;;;;;;;;;;;30.28;28.49;101349.53;5070874;28;19932;-75
2023/05/22 12:21:09;;;;;;;;;;;;;;;30.41;27.46;101354.31;5060473;28;19939;-76
2023/05/22 12:23:34;;;;;;;;;;;;;;;30.23;27.80;101347.16;5068924;28;19938;-75
2023/05/22 12:26:07;;;;;;;;;;;;;;;29.88;27.15;101354.09;5049895;28;19950;-74
2023/05/22 12:28:33;;;;;;;;;;;;;;;29.85;28.12;101341.03;5048338;28;19981;-76
2023/05/22 12:30:59;;;;;;;;;;;;;;;30.39;28.58;101344.81;5064488;28;19977;-73
2023/05/22 12:33:28;;;;;;;;;;;;;;;30.15;27.92;101338.84;5050008;28;19956;-74
2023/05/22 12:35:57;;;;;;;;;;;;;;;30.69;28.78;101342.56;5062416;28;19963;-74
2023/05/22 12:38:26;;;;;;;;;;;;;;;30.43;27.30;101346.44;5059309;28;19933;-75
2023/05/22 12:40:52;;;;;;;;;;;;;;;29.98;27.27;101334.00;5050261;28;19941;-73